Falls International Airport International Falls US
ICAO: KINL
IATA: INL
Category: Medium
Scheduled Services: Yes

Elevation: 1185 ft
TransAlt. 18000 ft.

Airport Communications:
ASOS:120
MINNEAPOLIS CNTR:120.9
PRINCETON RDO:123.6
CTAF/UNICOM:122.8

KINL Zoom In..

Runways:

(A) RW 04 length 2999 ft width 75 ft
---- / hdg 39

(B) RW 13 length 7400 ft width 150 ft
ILS 109.10 / hdg 133

(C) RW 22 length 2999 ft width 75 ft
---- / hdg 219

(D) RW 31 length 7400 ft width 150 ft
ILS 111.95 / hdg 313

Location; KINL
Day. 23 / Time. 07.55 Zulu
* Altimeter: 30.05
* Temperature: 16° c. 60.8°f.
* Wind from: 140° Speed 05 kn.
Dewpoint: 16° c.
Visibility: 6 Statute Miles.
Clouds: Overcast 11000 ft.
Conditions: Mist.

KINL 230755Z AUTO 14005KT 6SM BR OVC110 16/16 A3005 RMK AO2 SLP174 T01610161


Wind From 140°
Speed 05 kn.

 
 
jpsmedia.com for Web Design worldairports.se 2018   terms of use